sensor_id;sensor_type;location;lat;lon;timestamp;temperature;humidity
23311;DHT22;11828;51.508;18.118;2022-12-19T00:03:51;10.40;27.30
23311;DHT22;11828;51.508;18.118;2022-12-19T00:06:22;10.50;27.80
23311;DHT22;11828;51.508;18.118;2022-12-19T00:08:51;10.50;27.10
23311;DHT22;11828;51.508;18.118;2022-12-19T00:11:20;10.50;27.00
23311;DHT22;11828;51.508;18.118;2022-12-19T00:13:47;10.40;27.00
23311;DHT22;11828;51.508;18.118;2022-12-19T00:16:19;10.50;27.00
23311;DHT22;11828;51.508;18.118;2022-12-19T00:18:48;10.50;26.90
23311;DHT22;11828;51.508;18.118;2022-12-19T00:21:17;10.60;26.90
23311;DHT22;11828;51.508;18.118;2022-12-19T00:23:46;10.70;26.90
23311;DHT22;11828;51.508;18.118;2022-12-19T00:28:47;10.50;27.40
23311;DHT22;11828;51.508;18.118;2022-12-19T00:31:15;10.50;27.10
23311;DHT22;11828;51.508;18.118;2022-12-19T00:33:43;10.60;27.10
23311;DHT22;11828;51.508;18.118;2022-12-19T00:36:13;10.60;27.00
23311;DHT22;11828;51.508;18.118;2022-12-19T00:38:44;10.80;27.50
23311;DHT22;11828;51.508;18.118;2022-12-19T00:41:11;10.90;26.80
23311;DHT22;11828;51.508;18.118;2022-12-19T00:44:06;10.90;26.90
23311;DHT22;11828;51.508;18.118;2022-12-19T00:46:34;10.80;27.30
23311;DHT22;11828;51.508;18.118;2022-12-19T00:49:02;10.90;26.90
23311;DHT22;11828;51.508;18.118;2022-12-19T00:51:30;10.90;27.00
23311;DHT22;11828;51.508;18.118;2022-12-19T00:53:57;10.60;27.00
23311;DHT22;11828;51.508;18.118;2022-12-19T00:56:27;10.70;27.20
23311;DHT22;11828;51.508;18.118;2022-12-19T00:58:55;10.70;27.20
23311;DHT22;11828;51.508;18.118;2022-12-19T01:01:27;11.00;27.20
23311;DHT22;11828;51.508;18.118;2022-12-19T01:03:57;11.20;26.90
23311;DHT22;11828;51.508;18.118;2022-12-19T01:06:25;11.40;26.60
23311;DHT22;11828;51.508;18.118;2022-12-19T01:08:52;11.30;26.50
23311;DHT22;11828;51.508;18.118;2022-12-19T01:11:18;11.30;26.50
23311;DHT22;11828;51.508;18.118;2022-12-19T01:14:04;11.20;26.60
23311;DHT22;11828;51.508;18.118;2022-12-19T01:16:30;11.10;27.20
23311;DHT22;11828;51.508;18.118;2022-12-19T01:18:56;11.10;26.70
23311;DHT22;11828;51.508;18.118;2022-12-19T01:21:23;11.00;26.70
23311;DHT22;11828;51.508;18.118;2022-12-19T01:23:50;10.70;26.80
23311;DHT22;11828;51.508;18.118;2022-12-19T01:26:16;10.60;27.00
23311;DHT22;11828;51.508;18.118;2022-12-19T01:28:42;10.40;27.20
23311;DHT22;11828;51.508;18.118;2022-12-19T01:31:08;10.40;27.30
23311;DHT22;11828;51.508;18.118;2022-12-19T01:33:35;10.30;27.40
23311;DHT22;11828;51.508;18.118;2022-12-19T01:36:00;10.60;27.40
23311;DHT22;11828;51.508;18.118;2022-12-19T01:38:33;10.60;27.30
23311;DHT22;11828;51.508;18.118;2022-12-19T01:41:00;10.80;27.20
23311;DHT22;11828;51.508;18.118;2022-12-19T01:43:29;10.90;27.00
23311;DHT22;11828;51.508;18.118;2022-12-19T01:46:02;11.00;27.00
23311;DHT22;11828;51.508;18.118;2022-12-19T01:48:31;11.00;26.80
23311;DHT22;11828;51.508;18.118;2022-12-19T01:51:04;10.90;26.80
23311;DHT22;11828;51.508;18.118;2022-12-19T01:53:45;10.90;26.90
23311;DHT22;11828;51.508;18.118;2022-12-19T01:56:22;10.80;27.10
23311;DHT22;11828;51.508;18.118;2022-12-19T01:58:52;11.10;27.00
23311;DHT22;11828;51.508;18.118;2022-12-19T02:01:19;11.40;26.90
23311;DHT22;11828;51.508;18.118;2022-12-19T02:03:46;11.40;26.60
23311;DHT22;11828;51.508;18.118;2022-12-19T02:06:13;11.40;26.60
23311;DHT22;11828;51.508;18.118;2022-12-19T02:08:40;11.60;26.40
23311;DHT22;11828;51.508;18.118;2022-12-19T02:11:08;11.50;26.40
23311;DHT22;11828;51.508;18.118;2022-12-19T02:13:34;11.30;26.40
23311;DHT22;11828;51.508;18.118;2022-12-19T02:19:15;11.20;26.70
23311;DHT22;11828;51.508;18.118;2022-12-19T02:30:39;11.10;27.20
23311;DHT22;11828;51.508;18.118;2022-12-19T02:35:53;11.20;27.10
23311;DHT22;11828;51.508;18.118;2022-12-19T02:38:40;11.30;27.00
23311;DHT22;11828;51.508;18.118;2022-12-19T02:41:26;11.30;27.00
23311;DHT22;11828;51.508;18.118;2022-12-19T02:44:38;11.30;27.00
23311;DHT22;11828;51.508;18.118;2022-12-19T02:47:08;11.30;26.90
23311;DHT22;11828;51.508;18.118;2022-12-19T02:49:36;11.30;26.90
23311;DHT22;11828;51.508;18.118;2022-12-19T02:52:10;11.40;26.90
23311;DHT22;11828;51.508;18.118;2022-12-19T02:54:38;11.30;26.90
23311;DHT22;11828;51.508;18.118;2022-12-19T02:57:23;11.20;26.90
23311;DHT22;11828;51.508;18.118;2022-12-19T02:59:56;11.10;27.00
23311;DHT22;11828;51.508;18.118;2022-12-19T03:06:04;11.00;27.30
23311;DHT22;11828;51.508;18.118;2022-12-19T03:11:29;11.20;27.80
23311;DHT22;11828;51.508;18.118;2022-12-19T03:14:02;11.40;27.00
23311;DHT22;11828;51.508;18.118;2022-12-19T03:16:35;11.40;26.90
23311;DHT22;11828;51.508;18.118;2022-12-19T03:19:03;11.50;26.90
23311;DHT22;11828;51.508;18.118;2022-12-19T03:21:36;11.50;26.90
23311;DHT22;11828;51.508;18.118;2022-12-19T03:24:05;11.50;26.90
23311;DHT22;11828;51.508;18.118;2022-12-19T03:26:55;11.50;26.80
23311;DHT22;11828;51.508;18.118;2022-12-19T03:29:52;11.40;26.90
23311;DHT22;11828;51.508;18.118;2022-12-19T03:32:26;11.50;26.90
23311;DHT22;11828;51.508;18.118;2022-12-19T03:35:04;11.60;26.90
23311;DHT22;11828;51.508;18.118;2022-12-19T03:37:35;11.60;26.90
23311;DHT22;11828;51.508;18.118;2022-12-19T03:40:14;11.50;27.00
23311;DHT22;11828;51.508;18.118;2022-12-19T03:42:44;11.40;27.60
23311;DHT22;11828;51.508;18.118;2022-12-19T03:48:51;11.40;27.10
23311;DHT22;11828;51.508;18.118;2022-12-19T03:54:02;11.70;27.10
23311;DHT22;11828;51.508;18.118;2022-12-19T03:56:48;11.70;27.10
23311;DHT22;11828;51.508;18.118;2022-12-19T03:59:28;11.90;27.00
23311;DHT22;11828;51.508;18.118;2022-12-19T04:02:00;12.10;26.80
23311;DHT22;11828;51.508;18.118;2022-12-19T04:04:29;12.00;26.60
23311;DHT22;11828;51.508;18.118;2022-12-19T04:06:57;12.00;26.80
23311;DHT22;11828;51.508;18.118;2022-12-19T04:09:24;11.90;26.90
23311;DHT22;11828;51.508;18.118;2022-12-19T04:11:54;11.90;26.80
23311;DHT22;11828;51.508;18.118;2022-12-19T04:14:29;11.80;26.90
23311;DHT22;11828;51.508;18.118;2022-12-19T04:20:12;12.30;26.80
23311;DHT22;11828;51.508;18.118;2022-12-19T04:25:11;12.80;26.20
23311;DHT22;11828;51.508;18.118;2022-12-19T04:27:44;12.90;26.00
23311;DHT22;11828;51.508;18.118;2022-12-19T04:30:14;13.10;25.90
23311;DHT22;11828;51.508;18.118;2022-12-19T04:32:42;13.10;25.50
23311;DHT22;11828;51.508;18.118;2022-12-19T04:35:09;13.40;25.70
23311;DHT22;11828;51.508;18.118;2022-12-19T04:37:35;13.50;25.60
23311;DHT22;11828;51.508;18.118;2022-12-19T04:40:02;13.40;25.40
23311;DHT22;11828;51.508;18.118;2022-12-19T04:42:30;13.70;25.20
23311;DHT22;11828;51.508;18.118;2022-12-19T04:44:56;13.90;25.10
23311;DHT22;11828;51.508;18.118;2022-12-19T04:47:22;14.10;24.90
23311;DHT22;11828;51.508;18.118;2022-12-19T04:49:48;14.10;24.60
23311;DHT22;11828;51.508;18.118;2022-12-19T04:52:14;14.10;24.40
23311;DHT22;11828;51.508;18.118;2022-12-19T04:54:40;14.00;24.50
23311;DHT22;11828;51.508;18.118;2022-12-19T04:57:07;13.80;24.50
23311;DHT22;11828;51.508;18.118;2022-12-19T04:59:33;13.70;24.70
23311;DHT22;11828;51.508;18.118;2022-12-19T05:01:59;13.50;24.80
23311;DHT22;11828;51.508;18.118;2022-12-19T05:04:25;13.40;25.00
23311;DHT22;11828;51.508;18.118;2022-12-19T05:06:52;13.20;25.20
23311;DHT22;11828;51.508;18.118;2022-12-19T05:09:17;13.20;25.30
23311;DHT22;11828;51.508;18.118;2022-12-19T05:11:44;13.30;25.30
23311;DHT22;11828;51.508;18.118;2022-12-19T05:14:10;13.20;25.20
23311;DHT22;11828;51.508;18.118;2022-12-19T05:16:36;13.30;25.30
23311;DHT22;11828;51.508;18.118;2022-12-19T05:19:02;13.20;25.20
23311;DHT22;11828;51.508;18.118;2022-12-19T05:21:28;13.20;25.30
23311;DHT22;11828;51.508;18.118;2022-12-19T05:23:54;13.10;25.30
23311;DHT22;11828;51.508;18.118;2022-12-19T05:26:20;13.00;25.40
23311;DHT22;11828;51.508;18.118;2022-12-19T05:28:46;13.00;25.40
23311;DHT22;11828;51.508;18.118;2022-12-19T05:31:16;13.10;25.40
23311;DHT22;11828;51.508;18.118;2022-12-19T05:33:45;12.80;25.40
23311;DHT22;11828;51.508;18.118;2022-12-19T05:36:13;12.80;25.40
23311;DHT22;11828;51.508;18.118;2022-12-19T05:38:40;12.70;25.60
23311;DHT22;11828;51.508;18.118;2022-12-19T05:41:11;12.50;25.70
23311;DHT22;11828;51.508;18.118;2022-12-19T05:43:38;12.30;26.00
23311;DHT22;11828;51.508;18.118;2022-12-19T05:46:05;12.10;26.20
23311;DHT22;11828;51.508;18.118;2022-12-19T05:48:32;12.10;26.40
23311;DHT22;11828;51.508;18.118;2022-12-19T05:50:59;12.10;26.50
23311;DHT22;11828;51.508;18.118;2022-12-19T05:53:24;12.10;26.40
23311;DHT22;11828;51.508;18.118;2022-12-19T05:56:22;12.00;26.40
23311;DHT22;11828;51.508;18.118;2022-12-19T05:58:48;12.00;26.50
23311;DHT22;11828;51.508;18.118;2022-12-19T06:01:23;11.90;26.50
23311;DHT22;11828;51.508;18.118;2022-12-19T06:03:51;12.00;26.60
23311;DHT22;11828;51.508;18.118;2022-12-19T06:06:19;11.90;26.60
23311;DHT22;11828;51.508;18.118;2022-12-19T06:08:52;12.00;26.60
23311;DHT22;11828;51.508;18.118;2022-12-19T06:11:19;12.00;26.50
23311;DHT22;11828;51.508;18.118;2022-12-19T06:13:46;12.10;26.50
23311;DHT22;11828;51.508;18.118;2022-12-19T06:16:14;12.00;26.40
23311;DHT22;11828;51.508;18.118;2022-12-19T06:18:43;12.00;26.50
23311;DHT22;11828;51.508;18.118;2022-12-19T06:21:12;11.80;26.50
23311;DHT22;11828;51.508;18.118;2022-12-19T06:23:41;11.70;27.10
23311;DHT22;11828;51.508;18.118;2022-12-19T06:26:10;11.90;26.70
23311;DHT22;11828;51.508;18.118;2022-12-19T06:28:37;12.00;26.60
23311;DHT22;11828;51.508;18.118;2022-12-19T06:31:04;11.90;26.60
23311;DHT22;11828;51.508;18.118;2022-12-19T06:33:32;12.00;26.70
23311;DHT22;11828;51.508;18.118;2022-12-19T06:36:02;12.10;26.70
23311;DHT22;11828;51.508;18.118;2022-12-19T06:38:30;12.20;26.60
23311;DHT22;11828;51.508;18.118;2022-12-19T06:40:58;12.40;26.40
23311;DHT22;11828;51.508;18.118;2022-12-19T06:43:42;12.60;26.80
23311;DHT22;11828;51.508;18.118;2022-12-19T06:46:09;12.60;26.00
23311;DHT22;11828;51.508;18.118;2022-12-19T06:48:35;12.70;26.00
23311;DHT22;11828;51.508;18.118;2022-12-19T06:51:01;12.80;26.00
23311;DHT22;11828;51.508;18.118;2022-12-19T06:53:28;12.80;25.90
23311;DHT22;11828;51.508;18.118;2022-12-19T06:55:56;12.60;25.90
23311;DHT22;11828;51.508;18.118;2022-12-19T06:58:22;12.50;26.20
23311;DHT22;11828;51.508;18.118;2022-12-19T07:00:49;12.50;26.40
23311;DHT22;11828;51.508;18.118;2022-12-19T07:03:20;12.30;26.50
23311;DHT22;11828;51.508;18.118;2022-12-19T07:05:48;12.20;26.70
23311;DHT22;11828;51.508;18.118;2022-12-19T07:08:14;12.10;26.80
23311;DHT22;11828;51.508;18.118;2022-12-19T07:10:40;12.10;27.10
23311;DHT22;11828;51.508;18.118;2022-12-19T07:13:06;12.00;27.10
23311;DHT22;11828;51.508;18.118;2022-12-19T07:15:33;12.00;27.20
23311;DHT22;11828;51.508;18.118;2022-12-19T07:18:00;12.10;27.20
23311;DHT22;11828;51.508;18.118;2022-12-19T07:20:29;12.40;27.10
23311;DHT22;11828;51.508;18.118;2022-12-19T07:22:57;12.50;26.90
23311;DHT22;11828;51.508;18.118;2022-12-19T07:25:23;13.00;26.90
23311;DHT22;11828;51.508;18.118;2022-12-19T07:27:49;13.30;26.50
23311;DHT22;11828;51.508;18.118;2022-12-19T07:30:16;13.70;26.10
23311;DHT22;11828;51.508;18.118;2022-12-19T07:32:43;14.30;25.50
23311;DHT22;11828;51.508;18.118;2022-12-19T07:35:08;14.60;25.30
23311;DHT22;11828;51.508;18.118;2022-12-19T07:37:35;15.10;24.90
23311;DHT22;11828;51.508;18.118;2022-12-19T07:40:01;15.10;24.60
23311;DHT22;11828;51.508;18.118;2022-12-19T07:42:28;15.30;24.60
23311;DHT22;11828;51.508;18.118;2022-12-19T07:44:55;15.50;24.50
23311;DHT22;11828;51.508;18.118;2022-12-19T07:47:21;15.70;24.30
23311;DHT22;11828;51.508;18.118;2022-12-19T07:49:47;15.80;24.10
23311;DHT22;11828;51.508;18.118;2022-12-19T07:52:13;16.00;24.30
23311;DHT22;11828;51.508;18.118;2022-12-19T07:54:39;16.50;24.40
23311;DHT22;11828;51.508;18.118;2022-12-19T07:57:05;17.10;24.00
23311;DHT22;11828;51.508;18.118;2022-12-19T07:59:32;17.10;23.20
23311;DHT22;11828;51.508;18.118;2022-12-19T08:01:58;17.50;23.10
23311;DHT22;11828;51.508;18.118;2022-12-19T08:04:24;17.70;23.10
23311;DHT22;11828;51.508;18.118;2022-12-19T08:06:51;17.50;22.80
23311;DHT22;11828;51.508;18.118;2022-12-19T08:09:17;17.80;23.00
23311;DHT22;11828;51.508;18.118;2022-12-19T08:11:43;18.10;22.90
23311;DHT22;11828;51.508;18.118;2022-12-19T08:14:09;18.70;22.90
23311;DHT22;11828;51.508;18.118;2022-12-19T08:16:35;18.90;22.60
23311;DHT22;11828;51.508;18.118;2022-12-19T08:19:02;19.20;22.20
23311;DHT22;11828;51.508;18.118;2022-12-19T08:21:29;19.40;22.00
23311;DHT22;11828;51.508;18.118;2022-12-19T08:23:56;19.60;21.80
23311;DHT22;11828;51.508;18.118;2022-12-19T08:26:22;19.90;21.70
23311;DHT22;11828;51.508;18.118;2022-12-19T08:28:56;19.80;21.80
23311;DHT22;11828;51.508;18.118;2022-12-19T08:31:25;19.30;21.30
23311;DHT22;11828;51.508;18.118;2022-12-19T08:33:53;19.20;21.70
23311;DHT22;11828;51.508;18.118;2022-12-19T08:36:20;19.20;22.00
23311;DHT22;11828;51.508;18.118;2022-12-19T08:38:48;19.20;22.10
23311;DHT22;11828;51.508;18.118;2022-12-19T08:41:15;19.20;21.90
23311;DHT22;11828;51.508;18.118;2022-12-19T08:43:46;19.30;21.90
23311;DHT22;11828;51.508;18.118;2022-12-19T08:46:17;19.30;21.80
23311;DHT22;11828;51.508;18.118;2022-12-19T08:48:44;19.30;21.80
23311;DHT22;11828;51.508;18.118;2022-12-19T08:51:12;19.10;22.00
23311;DHT22;11828;51.508;18.118;2022-12-19T08:53:40;19.10;22.30
23311;DHT22;11828;51.508;18.118;2022-12-19T08:56:17;18.90;22.20
23311;DHT22;11828;51.508;18.118;2022-12-19T08:58:49;18.60;22.50
23311;DHT22;11828;51.508;18.118;2022-12-19T09:01:18;18.60;23.00
23311;DHT22;11828;51.508;18.118;2022-12-19T09:03:46;18.70;23.30
23311;DHT22;11828;51.508;18.118;2022-12-19T09:06:13;18.80;23.40
23311;DHT22;11828;51.508;18.118;2022-12-19T09:08:39;18.70;23.30
23311;DHT22;11828;51.508;18.118;2022-12-19T09:11:09;18.60;23.40
23311;DHT22;11828;51.508;18.118;2022-12-19T09:13:37;18.20;23.70
23311;DHT22;11828;51.508;18.118;2022-12-19T09:16:09;18.10;23.90
23311;DHT22;11828;51.508;18.118;2022-12-19T09:18:37;17.50;24.40
23311;DHT22;11828;51.508;18.118;2022-12-19T09:21:04;17.10;24.90
23311;DHT22;11828;51.508;18.118;2022-12-19T09:23:31;17.00;25.30
23311;DHT22;11828;51.508;18.118;2022-12-19T09:26:09;16.40;25.50
23311;DHT22;11828;51.508;18.118;2022-12-19T09:28:38;16.20;25.90
23311;DHT22;11828;51.508;18.118;2022-12-19T09:31:07;15.90;26.20
23311;DHT22;11828;51.508;18.118;2022-12-19T09:33:36;15.90;26.60
23311;DHT22;11828;51.508;18.118;2022-12-19T09:36:03;15.70;26.80
23311;DHT22;11828;51.508;18.118;2022-12-19T09:38:31;15.60;27.00
23311;DHT22;11828;51.508;18.118;2022-12-19T09:49:41;16.30;26.80
23311;DHT22;11828;51.508;18.118;2022-12-19T09:52:20;15.90;26.60
23311;DHT22;11828;51.508;18.118;2022-12-19T09:54:54;16.20;26.80
23311;DHT22;11828;51.508;18.118;2022-12-19T09:57:43;16.30;26.80
23311;DHT22;11828;51.508;18.118;2022-12-19T10:00:17;16.00;26.60
23311;DHT22;11828;51.508;18.118;2022-12-19T10:05:44;15.80;26.90
23311;DHT22;11828;51.508;18.118;2022-12-19T10:08:24;15.90;27.10
23311;DHT22;11828;51.508;18.118;2022-12-19T10:11:09;15.90;27.60
23311;DHT22;11828;51.508;18.118;2022-12-19T10:20:24;16.50;26.80
23311;DHT22;11828;51.508;18.118;2022-12-19T10:26:18;16.10;26.80
23311;DHT22;11828;51.508;18.118;2022-12-19T10:34:56;15.90;27.50
23311;DHT22;11828;51.508;18.118;2022-12-19T10:37:28;15.90;27.30
23311;DHT22;11828;51.508;18.118;2022-12-19T10:42:57;15.90;27.20
23311;DHT22;11828;51.508;18.118;2022-12-19T10:45:32;16.00;27.40
23311;DHT22;11828;51.508;18.118;2022-12-19T10:48:03;15.90;27.30
23311;DHT22;11828;51.508;18.118;2022-12-19T10:50:31;16.00;27.40
23311;DHT22;11828;51.508;18.118;2022-12-19T10:55:46;15.90;27.10
23311;DHT22;11828;51.508;18.118;2022-12-19T11:03:38;16.70;26.80
23311;DHT22;11828;51.508;18.118;2022-12-19T11:09:39;16.90;26.30
23311;DHT22;11828;51.508;18.118;2022-12-19T11:14:34;17.40;26.00
23311;DHT22;11828;51.508;18.118;2022-12-19T11:17:02;17.60;26.00
23311;DHT22;11828;51.508;18.118;2022-12-19T11:22:05;17.50;25.80
23311;DHT22;11828;51.508;18.118;2022-12-19T11:24:53;17.60;25.80
23311;DHT22;11828;51.508;18.118;2022-12-19T11:30:19;17.60;25.70
23311;DHT22;11828;51.508;18.118;2022-12-19T11:32:48;17.70;25.70
23311;DHT22;11828;51.508;18.118;2022-12-19T11:35:52;17.70;25.80
23311;DHT22;11828;51.508;18.118;2022-12-19T11:38:45;17.40;25.90
23311;DHT22;11828;51.508;18.118;2022-12-19T11:41:41;17.20;26.10
23311;DHT22;11828;51.508;18.118;2022-12-19T11:47:02;17.00;26.50
23311;DHT22;11828;51.508;18.118;2022-12-19T11:49:39;17.20;26.60
23311;DHT22;11828;51.508;18.118;2022-12-19T11:52:41;17.30;26.60
23311;DHT22;11828;51.508;18.118;2022-12-19T11:55:41;17.50;26.50
23311;DHT22;11828;51.508;18.118;2022-12-19T11:58:11;17.30;26.50
23311;DHT22;11828;51.508;18.118;2022-12-19T12:06:12;17.90;26.20
23311;DHT22;11828;51.508;18.118;2022-12-19T12:09:07;17.90;26.10
23311;DHT22;11828;51.508;18.118;2022-12-19T12:12:03;17.90;26.50
23311;DHT22;11828;51.508;18.118;2022-12-19T12:23:21;20.00;24.60
23311;DHT22;11828;51.508;18.118;2022-12-19T12:26:19;20.60;24.00
23311;DHT22;11828;51.508;18.118;2022-12-19T12:29:13;20.20;23.50
23311;DHT22;11828;51.508;18.118;2022-12-19T12:35:05;20.10;23.30
23311;DHT22;11828;51.508;18.118;2022-12-19T12:37:47;19.70;23.60
23311;DHT22;11828;51.508;18.118;2022-12-19T12:46:34;19.90;24.00
23311;DHT22;11828;51.508;18.118;2022-12-19T12:49:42;20.20;23.90
23311;DHT22;11828;51.508;18.118;2022-12-19T12:52:15;19.90;23.70
23311;DHT22;11828;51.508;18.118;2022-12-19T12:54:46;19.90;24.30
23311;DHT22;11828;51.508;18.118;2022-12-19T12:57:19;19.70;23.90
23311;DHT22;11828;51.508;18.118;2022-12-19T13:02:49;19.10;24.40
23311;DHT22;11828;51.508;18.118;2022-12-19T13:05:54;18.40;24.80
23311;DHT22;11828;51.508;18.118;2022-12-19T13:08:36;18.60;25.30
23311;DHT22;11828;51.508;18.118;2022-12-19T13:17:04;18.70;25.20
23311;DHT22;11828;51.508;18.118;2022-12-19T13:19:33;18.20;25.30
23311;DHT22;11828;51.508;18.118;2022-12-19T13:33:05;17.70;26.30
23311;DHT22;11828;51.508;18.118;2022-12-19T13:37:48;17.30;26.70
23311;DHT22;11828;51.508;18.118;2022-12-19T13:43:11;17.00;27.10
23311;DHT22;11828;51.508;18.118;2022-12-19T13:46:17;17.20;27.20
23311;DHT22;11828;51.508;18.118;2022-12-19T13:48:53;16.90;27.40
23311;DHT22;11828;51.508;18.118;2022-12-19T13:51:21;17.20;27.40
23311;DHT22;11828;51.508;18.118;2022-12-19T13:53:52;17.30;27.30
23311;DHT22;11828;51.508;18.118;2022-12-19T13:56:19;17.30;27.30
23311;DHT22;11828;51.508;18.118;2022-12-19T13:58:52;17.50;27.20
23311;DHT22;11828;51.508;18.118;2022-12-19T14:04:09;17.10;27.20
23311;DHT22;11828;51.508;18.118;2022-12-19T14:06:43;16.90;27.60
23311;DHT22;11828;51.508;18.118;2022-12-19T14:11:48;16.70;27.70
23311;DHT22;11828;51.508;18.118;2022-12-19T14:14:16;16.50;27.90
23311;DHT22;11828;51.508;18.118;2022-12-19T14:17:16;16.50;28.10
23311;DHT22;11828;51.508;18.118;2022-12-19T14:19:50;16.40;28.20
23311;DHT22;11828;51.508;18.118;2022-12-19T14:24:57;16.70;28.20
23311;DHT22;11828;51.508;18.118;2022-12-19T14:30:27;16.80;27.70
23311;DHT22;11828;51.508;18.118;2022-12-19T14:32:57;16.70;27.70
23311;DHT22;11828;51.508;18.118;2022-12-19T14:35:30;16.80;28.30
23311;DHT22;11828;51.508;18.118;2022-12-19T14:38:01;16.90;27.70
23311;DHT22;11828;51.508;18.118;2022-12-19T14:40:30;17.10;27.70
23311;DHT22;11828;51.508;18.118;2022-12-19T14:46:30;16.80;27.60
23311;DHT22;11828;51.508;18.118;2022-12-19T14:49:00;16.90;27.80
23311;DHT22;11828;51.508;18.118;2022-12-19T14:51:34;17.00;27.70
23311;DHT22;11828;51.508;18.118;2022-12-19T14:54:22;16.80;27.80
23311;DHT22;11828;51.508;18.118;2022-12-19T14:56:50;17.10;28.30
23311;DHT22;11828;51.508;18.118;2022-12-19T14:59:43;17.00;27.80
23311;DHT22;11828;51.508;18.118;2022-12-19T15:02:26;17.20;27.60
23311;DHT22;11828;51.508;18.118;2022-12-19T15:05:09;17.20;27.50
23311;DHT22;11828;51.508;18.118;2022-12-19T15:07:43;17.50;27.50
23311;DHT22;11828;51.508;18.118;2022-12-19T15:10:44;17.00;27.20
23311;DHT22;11828;51.508;18.118;2022-12-19T15:15:55;16.90;27.80
23311;DHT22;11828;51.508;18.118;2022-12-19T15:18:27;16.80;28.00
23311;DHT22;11828;51.508;18.118;2022-12-19T15:21:10;17.10;27.90
23311;DHT22;11828;51.508;18.118;2022-12-19T15:23:37;17.00;27.80
23311;DHT22;11828;51.508;18.118;2022-12-19T15:26:12;16.90;27.80
23311;DHT22;11828;51.508;18.118;2022-12-19T15:28:48;16.80;27.80
23311;DHT22;11828;51.508;18.118;2022-12-19T15:31:24;17.10;27.90
23311;DHT22;11828;51.508;18.118;2022-12-19T15:34:25;17.20;27.70
23311;DHT22;11828;51.508;18.118;2022-12-19T15:36:53;17.10;27.70
23311;DHT22;11828;51.508;18.118;2022-12-19T15:39:20;17.10;27.90
23311;DHT22;11828;51.508;18.118;2022-12-19T15:41:50;17.30;27.80
23311;DHT22;11828;51.508;18.118;2022-12-19T15:44:25;17.50;27.70
23311;DHT22;11828;51.508;18.118;2022-12-19T15:46:59;17.40;28.10
23311;DHT22;11828;51.508;18.118;2022-12-19T15:49:26;17.50;27.50
23311;DHT22;11828;51.508;18.118;2022-12-19T15:51:52;17.50;27.60
23311;DHT22;11828;51.508;18.118;2022-12-19T15:54:18;17.70;27.60
23311;DHT22;11828;51.508;18.118;2022-12-19T15:56:49;17.80;27.50
23311;DHT22;11828;51.508;18.118;2022-12-19T15:59:33;17.90;27.40
23311;DHT22;11828;51.508;18.118;2022-12-19T16:02:02;17.60;27.30
23311;DHT22;11828;51.508;18.118;2022-12-19T16:04:28;17.70;27.50
23311;DHT22;11828;51.508;18.118;2022-12-19T16:06:55;17.60;27.40
23311;DHT22;11828;51.508;18.118;2022-12-19T16:09:26;17.50;27.40
23311;DHT22;11828;51.508;18.118;2022-12-19T16:11:53;17.40;27.50
23311;DHT22;11828;51.508;18.118;2022-12-19T16:14:20;17.60;27.60
23311;DHT22;11828;51.508;18.118;2022-12-19T16:16:54;17.50;27.60
23311;DHT22;11828;51.508;18.118;2022-12-19T16:19:27;17.20;27.90
23311;DHT22;11828;51.508;18.118;2022-12-19T16:21:54;17.40;27.90
23311;DHT22;11828;51.508;18.118;2022-12-19T16:24:21;17.60;27.70
23311;DHT22;11828;51.508;18.118;2022-12-19T16:26:55;17.20;27.70
23311;DHT22;11828;51.508;18.118;2022-12-19T16:29:25;17.50;27.80
23311;DHT22;11828;51.508;18.118;2022-12-19T16:31:53;17.20;27.70
23311;DHT22;11828;51.508;18.118;2022-12-19T16:34:21;17.30;27.80
23311;DHT22;11828;51.508;18.118;2022-12-19T16:36:49;17.30;27.80
23311;DHT22;11828;51.508;18.118;2022-12-19T16:39:15;17.40;27.80
23311;DHT22;11828;51.508;18.118;2022-12-19T16:41:42;17.40;27.80
23311;DHT22;11828;51.508;18.118;2022-12-19T16:44:20;17.30;27.80
23311;DHT22;11828;51.508;18.118;2022-12-19T16:46:48;17.40;27.90
23311;DHT22;11828;51.508;18.118;2022-12-19T16:49:17;17.50;27.70
23311;DHT22;11828;51.508;18.118;2022-12-19T16:51:46;17.50;27.70
23311;DHT22;11828;51.508;18.118;2022-12-19T16:54:12;17.60;27.70
23311;DHT22;11828;51.508;18.118;2022-12-19T16:56:42;17.80;27.60
23311;DHT22;11828;51.508;18.118;2022-12-19T17:01:44;17.40;27.60
23311;DHT22;11828;51.508;18.118;2022-12-19T17:04:17;17.60;27.60
23311;DHT22;11828;51.508;18.118;2022-12-19T17:06:45;17.50;27.60
23311;DHT22;11828;51.508;18.118;2022-12-19T17:09:14;17.60;27.60
23311;DHT22;11828;51.508;18.118;2022-12-19T17:11:45;17.70;27.70
23311;DHT22;11828;51.508;18.118;2022-12-19T17:14:25;17.80;27.60
23311;DHT22;11828;51.508;18.118;2022-12-19T17:16:53;17.80;27.50
23311;DHT22;11828;51.508;18.118;2022-12-19T17:19:37;17.80;27.50
23311;DHT22;11828;51.508;18.118;2022-12-19T17:22:17;17.90;27.50
23311;DHT22;11828;51.508;18.118;2022-12-19T17:24:47;17.90;27.40
23311;DHT22;11828;51.508;18.118;2022-12-19T17:27:14;17.90;27.80
23311;DHT22;11828;51.508;18.118;2022-12-19T17:29:42;17.90;27.80
23311;DHT22;11828;51.508;18.118;2022-12-19T17:32:15;18.00;27.40
23311;DHT22;11828;51.508;18.118;2022-12-19T17:34:42;18.00;27.40
23311;DHT22;11828;51.508;18.118;2022-12-19T17:37:14;18.10;27.30
23311;DHT22;11828;51.508;18.118;2022-12-19T17:39:41;18.20;27.30
23311;DHT22;11828;51.508;18.118;2022-12-19T17:42:19;18.20;27.20
23311;DHT22;11828;51.508;18.118;2022-12-19T17:44:46;18.20;27.20
23311;DHT22;11828;51.508;18.118;2022-12-19T17:47:18;18.40;27.00
23311;DHT22;11828;51.508;18.118;2022-12-19T17:49:46;18.50;27.00
23311;DHT22;11828;51.508;18.118;2022-12-19T17:52:16;18.40;26.90
23311;DHT22;11828;51.508;18.118;2022-12-19T17:54:45;18.50;27.00
23311;DHT22;11828;51.508;18.118;2022-12-19T17:57:13;18.60;27.10
23311;DHT22;11828;51.508;18.118;2022-12-19T17:59:40;18.60;27.40
23311;DHT22;11828;51.508;18.118;2022-12-19T18:02:19;18.80;26.80
23311;DHT22;11828;51.508;18.118;2022-12-19T18:04:49;18.80;26.50
23311;DHT22;11828;51.508;18.118;2022-12-19T18:07:16;18.60;26.70
23311;DHT22;11828;51.508;18.118;2022-12-19T18:09:42;18.60;26.70
23311;DHT22;11828;51.508;18.118;2022-12-19T18:12:09;18.50;26.70
23311;DHT22;11828;51.508;18.118;2022-12-19T18:14:35;18.70;26.90
23311;DHT22;11828;51.508;18.118;2022-12-19T18:17:02;18.60;26.90
23311;DHT22;11828;51.508;18.118;2022-12-19T18:19:30;18.40;26.80
23311;DHT22;11828;51.508;18.118;2022-12-19T18:21:57;18.30;27.60